createdAt,value
2019-02-22T00:02:31.758Z,42.43
2019-02-22T00:05:03.923Z,49.47
2019-02-22T00:07:35.692Z,46.60
2019-02-22T00:10:08.058Z,52.93
2019-02-22T00:12:38.430Z,46.68
2019-02-22T00:15:11.632Z,49.77
2019-02-22T00:17:42.077Z,46.57
2019-02-22T00:20:14.880Z,49.20
2019-02-22T00:22:45.451Z,56.52
2019-02-22T00:25:15.784Z,50.97
2019-02-22T00:27:47.141Z,50.77
2019-02-22T00:30:22.290Z,52.03
2019-02-22T00:32:54.742Z,47.63
2019-02-22T00:35:26.817Z,55.13
2019-02-22T00:37:58.972Z,54.80
2019-02-22T00:40:29.253Z,54.07
2019-02-22T00:43:01.574Z,53.60
2019-02-22T00:45:31.986Z,52.93
2019-02-22T00:48:06.712Z,55.12
2019-02-22T00:50:44.131Z,53.83
2019-02-22T00:53:11.574Z,54.00
2019-02-22T00:55:43.255Z,52.10
2019-02-22T00:58:14.392Z,49.70
2019-02-22T01:00:45.947Z,50.23
2019-02-22T01:03:21.191Z,50.17
2019-02-22T01:05:51.502Z,54.13
2019-02-22T01:08:25.682Z,52.85
2019-02-22T01:10:57.602Z,52.90
2019-02-22T01:13:32.025Z,51.40
2019-02-22T01:16:04.625Z,50.90
2019-02-22T01:18:35.421Z,55.13
2019-02-22T01:21:05.846Z,45.50
2019-02-22T01:23:36.365Z,52.50
2019-02-22T01:26:09.655Z,53.60
2019-02-22T01:28:40.568Z,47.08
2019-02-22T01:31:10.866Z,50.83
2019-02-22T01:33:43.145Z,54.88
2019-02-22T01:36:13.440Z,52.60
2019-02-22T01:38:45.401Z,51.68
2019-02-22T01:41:15.754Z,53.07
2019-02-22T01:43:48.679Z,52.00
2019-02-22T01:46:22.183Z,48.30
2019-02-22T01:48:51.364Z,49.40
2019-02-22T01:51:21.758Z,50.23
2019-02-22T01:53:53.945Z,48.00
2019-02-22T01:56:25.912Z,51.53
2019-02-22T01:58:56.790Z,44.33
2019-02-22T02:01:27.085Z,51.33
2019-02-22T02:03:59.920Z,50.83
2019-02-22T02:06:31.008Z,50.58
2019-02-22T02:09:06.115Z,50.40
2019-02-22T02:11:47.155Z,54.20
2019-02-22T02:14:18.993Z,51.05
2019-02-22T02:16:50.594Z,50.87
2019-02-22T02:19:22.588Z,47.62
2019-02-22T02:21:54.351Z,54.03
2019-02-22T02:24:24.964Z,50.60
2019-02-22T02:27:03.731Z,52.40
2019-02-22T02:29:35.970Z,52.97
2019-02-22T02:32:06.397Z,51.10
2019-02-22T02:34:38.451Z,52.00
2019-02-22T02:37:08.796Z,55.53
2019-02-22T02:39:41.810Z,53.58
2019-02-22T02:42:12.154Z,54.10
2019-02-22T02:44:44.125Z,56.88
2019-02-22T02:47:14.405Z,52.93
2019-02-22T02:49:46.526Z,55.52
2019-02-22T02:52:18.492Z,53.17
2019-02-22T02:54:50.115Z,54.08
2019-02-22T02:57:25.721Z,60.00
2019-02-22T02:59:58.430Z,54.77
2019-02-22T03:02:30.875Z,52.10
2019-02-22T03:05:03.513Z,55.96
2019-02-22T03:07:44.853Z,56.77
2019-02-22T03:10:16.857Z,51.00
2019-02-22T03:12:49.102Z,58.00
2019-02-22T03:15:19.964Z,58.17
2019-02-22T03:17:55.209Z,55.40
2019-02-22T03:20:25.806Z,51.90
2019-02-22T03:22:57.433Z,59.83
2019-02-22T03:25:32.757Z,62.83
2019-02-22T03:28:03.434Z,65.73
2019-02-22T03:30:34.109Z,60.67
2019-02-22T03:33:04.755Z,58.07
2019-02-22T03:35:37.989Z,63.10
2019-02-22T03:38:08.516Z,59.73
2019-02-22T03:40:40.079Z,56.37
2019-02-22T03:43:10.525Z,63.53
2019-02-22T03:45:42.938Z,55.36
2019-02-22T03:48:15.144Z,58.57
2019-02-22T03:50:45.766Z,62.57
2019-02-22T03:53:24.984Z,56.57
2019-02-22T03:55:57.200Z,54.60
2019-02-22T03:58:30.118Z,63.20
2019-02-22T04:01:00.469Z,58.60
2019-02-22T04:03:30.747Z,59.67
2019-02-22T04:06:03.296Z,54.83
2019-02-22T04:08:33.786Z,57.63
2019-02-22T04:11:05.670Z,62.87
2019-02-22T04:13:35.989Z,59.53
2019-02-22T04:16:07.719Z,56.90
2019-02-22T04:18:42.105Z,52.50
2019-02-22T04:21:20.729Z,60.88
2019-02-22T04:23:57.694Z,52.03
2019-02-22T04:26:33.321Z,62.83
2019-02-22T04:29:14.737Z,60.27
2019-02-22T04:31:46.659Z,63.20
2019-02-22T04:34:28.874Z,57.30
2019-02-22T04:37:00.883Z,47.97
2019-02-22T04:39:31.323Z,58.37
2019-02-22T04:42:01.725Z,61.87
2019-02-22T04:44:34.701Z,56.50
2019-02-22T04:47:05.081Z,55.67
2019-02-22T04:49:39.231Z,65.40
2019-02-22T04:52:09.645Z,65.73
2019-02-22T04:54:41.243Z,58.67
2019-02-22T04:57:11.598Z,61.47
2019-02-22T04:59:47.021Z,69.77
2019-02-22T05:02:17.671Z,74.77
2019-02-22T05:04:49.788Z,70.28
2019-02-22T05:07:20.113Z,82.43
2019-02-22T05:09:51.808Z,72.42
2019-02-22T05:12:28.499Z,69.40
2019-02-22T05:15:12.003Z,72.04
2019-02-22T05:17:35.830Z,70.57
2019-02-22T05:20:10.774Z,64.87
2019-02-22T05:22:41.109Z,61.70
2019-02-22T05:25:12.753Z,63.25
2019-02-22T05:27:43.328Z,59.30
2019-02-22T05:30:16.304Z,61.25
2019-02-22T05:32:48.619Z,62.03
2019-02-22T05:35:20.562Z,59.58
2019-02-22T05:37:50.925Z,57.83
2019-02-22T05:40:21.956Z,58.87
2019-02-22T05:42:53.737Z,54.47
2019-02-22T05:45:26.000Z,56.60
2019-02-22T05:47:56.614Z,58.67
2019-02-22T05:50:27.556Z,55.17
2019-02-22T05:52:59.485Z,55.57
2019-02-22T05:55:30.111Z,54.63
2019-02-22T05:58:00.565Z,64.27
2019-02-22T06:00:34.219Z,51.33
2019-02-22T06:03:04.760Z,52.90
2019-02-22T06:05:36.348Z,42.43
2019-02-22T06:08:08.860Z,55.33
2019-02-22T06:10:38.790Z,46.67
2019-02-22T06:13:12.728Z,50.15
2019-02-22T06:15:44.902Z,46.50
2019-02-22T06:18:15.333Z,53.63
2019-02-22T06:20:55.045Z,47.77
2019-02-22T06:23:20.301Z,46.33
2019-02-22T06:25:50.983Z,48.33
2019-02-22T06:28:28.365Z,40.70
2019-02-22T06:30:59.459Z,44.85
2019-02-22T06:33:29.841Z,46.67
2019-02-22T06:36:00.135Z,45.10
2019-02-22T06:38:34.774Z,48.73
2019-02-22T06:41:08.151Z,44.07
2019-02-22T06:43:38.386Z,49.25
2019-02-22T06:46:08.751Z,46.73
2019-02-22T06:48:39.156Z,40.90
2019-02-22T06:51:09.573Z,37.00
2019-02-22T06:53:39.929Z,37.20
2019-02-22T06:56:11.664Z,35.50
2019-02-22T06:58:42.029Z,42.23
2019-02-22T07:01:12.305Z,45.97
2019-02-22T07:04:33.131Z,44.63
2019-02-22T07:06:14.943Z,49.13
2019-02-22T07:08:46.049Z,44.77
2019-02-22T07:11:53.993Z,46.87
2019-02-22T07:14:24.433Z,47.00
2019-02-22T07:16:56.572Z,49.03
2019-02-22T07:19:27.880Z,48.53
2019-02-22T07:21:58.203Z,50.50
2019-02-22T07:24:28.751Z,47.13
2019-02-22T07:26:59.324Z,51.37
2019-02-22T07:29:37.200Z,44.43
2019-02-22T07:32:07.495Z,46.77
2019-02-22T07:34:38.935Z,40.23
2019-02-22T07:37:10.628Z,39.38
2019-02-22T07:39:42.584Z,38.43
2019-02-22T07:42:13.237Z,38.93
2019-02-22T07:44:46.671Z,47.23
2019-02-22T07:47:19.549Z,47.98
2019-02-22T07:49:49.871Z,46.63
2019-02-22T07:52:21.080Z,48.20
2019-02-22T07:54:54.179Z,49.20
2019-02-22T07:57:24.490Z,44.83
2019-02-22T07:59:54.791Z,47.53
2019-02-22T08:02:27.653Z,43.47
2019-02-22T08:04:58.015Z,43.70
2019-02-22T08:07:28.323Z,48.60
2019-02-22T08:10:03.414Z,45.00
2019-02-22T08:12:34.801Z,45.43
2019-02-22T08:15:05.798Z,41.87
2019-02-22T08:17:40.307Z,44.20
2019-02-22T08:20:11.012Z,42.37
2019-02-22T08:22:43.943Z,43.63
2019-02-22T08:25:14.306Z,45.77
2019-02-22T08:27:53.100Z,42.37
2019-02-22T08:30:16.851Z,42.00
2019-02-22T08:32:51.975Z,43.95
2019-02-22T08:35:22.572Z,44.13
2019-02-22T08:37:56.979Z,44.93
2019-02-22T08:40:27.314Z,43.23
2019-02-22T08:43:00.707Z,42.13
2019-02-22T08:45:33.093Z,43.13
2019-02-22T08:48:05.712Z,43.95
2019-02-22T08:50:38.999Z,43.83
2019-02-22T08:53:12.538Z,42.50
2019-02-22T08:55:44.621Z,38.00
2019-02-22T08:58:16.812Z,39.95
2019-02-22T09:00:47.198Z,39.20
2019-02-22T09:03:17.749Z,40.17
2019-02-22T09:05:52.129Z,39.70
2019-02-22T09:08:24.063Z,37.42
2019-02-22T09:11:00.507Z,36.90
2019-02-22T09:13:30.155Z,35.57
2019-02-22T09:16:00.482Z,32.97
2019-02-22T09:18:35.434Z,34.13
2019-02-22T09:21:08.787Z,32.33
2019-02-22T09:23:40.938Z,32.06
2019-02-22T09:26:11.581Z,31.60
2019-02-22T09:28:44.758Z,32.74
2019-02-22T09:31:15.087Z,33.77
2019-02-22T09:33:45.945Z,32.67
2019-02-22T09:36:16.495Z,32.80
2019-02-22T09:38:48.046Z,33.23
2019-02-22T09:42:13.130Z,30.83
2019-02-22T09:43:55.871Z,32.80
2019-02-22T09:46:29.068Z,30.80
2019-02-22T09:49:08.675Z,31.10
2019-02-22T09:51:41.184Z,32.03
2019-02-22T09:54:11.396Z,32.85
2019-02-22T09:56:41.750Z,35.87
2019-02-22T09:59:13.147Z,36.73
2019-02-22T10:01:45.361Z,35.90
2019-02-22T10:04:19.057Z,36.00
2019-02-22T10:06:55.621Z,36.20
2019-02-22T10:09:30.005Z,30.60
2019-02-22T10:12:01.446Z,30.13
2019-02-22T10:14:32.162Z,29.70
2019-02-22T10:17:06.709Z,30.33
2019-02-22T10:19:38.870Z,30.57
2019-02-22T10:22:10.695Z,29.33
2019-02-22T10:24:42.568Z,28.67
2019-02-22T10:27:13.977Z,28.63
2019-02-22T10:29:44.351Z,29.87
2019-02-22T10:32:15.954Z,28.07
2019-02-22T10:34:47.083Z,30.73
2019-02-22T10:37:17.767Z,29.27
2019-02-22T10:39:50.123Z,30.87
2019-02-22T10:42:20.645Z,29.07
2019-02-22T10:44:53.015Z,30.33
2019-02-22T10:47:28.384Z,28.53
2019-02-22T10:49:58.379Z,28.30
2019-02-22T10:52:32.172Z,28.87
2019-02-22T10:55:04.892Z,27.62
2019-02-22T10:57:35.910Z,27.60
2019-02-22T11:00:13.639Z,27.52
2019-02-22T11:02:44.031Z,25.65
2019-02-22T11:05:14.967Z,27.15
2019-02-22T11:07:46.885Z,27.17
2019-02-22T11:10:17.715Z,24.60
2019-02-22T11:12:49.460Z,22.93
2019-02-22T11:15:19.879Z,23.30
2019-02-22T11:17:50.518Z,19.20
2019-02-22T11:20:21.344Z,19.70
2019-02-22T11:22:53.878Z,17.55
2019-02-22T11:25:26.266Z,15.74
2019-02-22T11:27:56.937Z,15.60
2019-02-22T11:30:29.006Z,10.98
2019-02-22T11:33:02.904Z,8.83
2019-02-22T11:35:35.848Z,8.14
2019-02-22T11:38:10.238Z,8.55
2019-02-22T11:40:44.575Z,8.68
2019-02-22T11:43:14.995Z,9.40
2019-02-22T11:45:46.591Z,10.00
2019-02-22T11:48:20.621Z,9.73
2019-02-22T11:50:51.553Z,10.60
2019-02-22T11:53:22.163Z,10.43
2019-02-22T11:55:54.201Z,10.90
2019-02-22T11:58:25.860Z,10.53
2019-02-22T12:00:58.363Z,9.83
2019-02-22T12:03:28.951Z,11.08
2019-02-22T12:06:00.664Z,10.20
2019-02-22T12:08:31.273Z,10.18
2019-02-22T12:11:01.809Z,11.47
2019-02-22T12:13:34.230Z,13.97
2019-02-22T12:16:04.673Z,13.07
2019-02-22T12:18:36.544Z,13.13
2019-02-22T12:21:08.807Z,12.43
2019-02-22T12:23:39.137Z,12.53
2019-02-22T12:26:14.196Z,12.08
2019-02-22T12:28:45.699Z,12.03
2019-02-22T12:31:16.391Z,12.70
2019-02-22T12:33:48.869Z,13.38
2019-02-22T12:36:22.052Z,12.80
2019-02-22T12:38:53.305Z,13.03
2019-02-22T12:41:25.440Z,12.80
2019-02-22T12:43:55.969Z,13.70
2019-02-22T12:46:27.581Z,12.25
2019-02-22T12:48:58.289Z,11.70
2019-02-22T12:51:30.908Z,11.65
2019-02-22T12:54:02.955Z,11.28
2019-02-22T12:59:08.489Z,12.30
2019-02-22T13:01:40.632Z,11.07
2019-02-22T13:04:11.144Z,10.67
2019-02-22T13:06:42.629Z,10.43
2019-02-22T13:09:13.277Z,10.53
2019-02-22T13:11:43.694Z,9.70
2019-02-22T13:14:14.020Z,9.53
2019-02-22T13:16:48.002Z,9.97
2019-02-22T13:19:18.307Z,7.63
2019-02-22T13:21:48.834Z,7.53
2019-02-22T13:24:19.791Z,7.67
2019-02-22T13:26:50.122Z,7.93
2019-02-22T13:29:20.934Z,7.58
2019-02-22T13:31:54.346Z,6.87
2019-02-22T13:34:26.492Z,6.07
2019-02-22T13:36:57.191Z,6.50
2019-02-22T13:39:29.685Z,7.10
2019-02-22T13:42:00.551Z,7.00
2019-02-22T13:44:31.190Z,6.30
2019-02-22T13:47:01.812Z,6.87
2019-02-22T13:49:32.079Z,6.90
2019-02-22T13:52:03.882Z,7.17
2019-02-22T13:54:35.670Z,6.70
2019-02-22T13:57:06.030Z,6.92
2019-02-22T13:59:37.780Z,6.94
2019-02-22T14:02:11.115Z,6.80
2019-02-22T14:04:44.277Z,6.20
2019-02-22T14:07:15.204Z,5.62
2019-02-22T14:09:47.667Z,5.85
2019-02-22T14:12:17.999Z,7.30
2019-02-22T14:14:52.067Z,9.48
2019-02-22T14:17:28.461Z,9.20
2019-02-22T14:19:59.267Z,9.83
2019-02-22T14:22:31.865Z,8.33
2019-02-22T14:25:02.584Z,6.60
2019-02-22T14:27:34.471Z,8.83
2019-02-22T14:30:07.937Z,9.60
2019-02-22T14:32:38.514Z,9.80
2019-02-22T14:35:10.693Z,9.43
2019-02-22T14:37:41.040Z,9.73
2019-02-22T14:40:14.671Z,10.10
2019-02-22T14:42:45.200Z,9.43
2019-02-22T14:45:16.050Z,10.18
2019-02-22T14:47:46.353Z,10.17
2019-02-22T14:50:18.095Z,13.05
2019-02-22T14:52:49.831Z,15.40
2019-02-22T14:55:20.179Z,14.55
2019-02-22T14:57:51.013Z,16.30
2019-02-22T15:00:23.054Z,15.97
2019-02-22T15:02:53.920Z,15.43
2019-02-22T15:05:28.140Z,16.22
2019-02-22T15:08:01.661Z,15.27
2019-02-22T15:10:32.297Z,14.43
2019-02-22T15:13:06.334Z,14.60
2019-02-22T15:16:00.517Z,15.23
2019-02-22T15:18:26.749Z,13.47
2019-02-22T15:21:00.706Z,13.78
2019-02-22T15:23:31.076Z,12.97
2019-02-22T15:26:01.976Z,14.33
2019-02-22T15:28:32.316Z,11.93
2019-02-22T15:31:05.579Z,12.50
2019-02-22T15:33:36.007Z,10.47
2019-02-22T15:36:08.600Z,12.06
2019-02-22T15:38:40.065Z,12.10
2019-02-22T15:41:10.793Z,10.13
2019-02-22T15:43:41.343Z,10.80
2019-02-22T15:46:13.471Z,10.13
2019-02-22T15:48:43.918Z,10.33
2019-02-22T15:51:18.747Z,10.23
2019-02-22T15:53:49.062Z,10.07
2019-02-22T15:56:19.758Z,10.07
2019-02-22T15:58:51.227Z,10.17
2019-02-22T16:01:24.269Z,9.48
2019-02-22T16:04:03.170Z,10.50
2019-02-22T16:06:33.586Z,10.10
2019-02-22T16:09:05.554Z,10.40
2019-02-22T16:11:37.481Z,10.72
2019-02-22T16:14:12.515Z,10.27
2019-02-22T16:16:44.761Z,9.63
2019-02-22T16:19:16.538Z,10.13
2019-02-22T16:21:48.734Z,11.20
2019-02-22T16:24:20.158Z,10.97
2019-02-22T16:27:02.098Z,11.97
2019-02-22T16:29:33.690Z,10.60
2019-02-22T16:32:05.254Z,10.50
2019-02-22T16:34:43.118Z,10.77
2019-02-22T16:37:08.117Z,11.53
2019-02-22T16:39:38.650Z,11.17
2019-02-22T16:42:09.205Z,11.10
2019-02-22T16:44:39.903Z,10.70
2019-02-22T16:47:10.605Z,11.40
2019-02-22T16:49:42.630Z,12.07
2019-02-22T16:52:15.186Z,11.47
2019-02-22T16:54:47.284Z,10.87
2019-02-22T16:57:18.102Z,10.23
2019-02-22T16:59:51.562Z,10.97
2019-02-22T17:02:25.576Z,11.62
2019-02-22T17:04:56.349Z,10.73
2019-02-22T17:07:28.585Z,11.10
2019-02-22T17:09:59.241Z,12.03
2019-02-22T17:12:29.902Z,10.68
2019-02-22T17:15:00.315Z,11.80
2019-02-22T17:17:30.922Z,11.87
2019-02-22T17:20:02.401Z,11.70
2019-02-22T17:22:34.385Z,11.18
2019-02-22T17:25:08.232Z,11.60
2019-02-22T17:27:42.541Z,12.58
2019-02-22T17:30:17.323Z,12.07
2019-02-22T17:32:47.852Z,11.85
2019-02-22T17:35:20.967Z,10.90
2019-02-22T17:37:54.807Z,11.60
2019-02-22T17:40:25.299Z,11.67
2019-02-22T17:42:56.213Z,12.18
2019-02-22T17:45:28.255Z,11.73
2019-02-22T17:47:58.728Z,12.07
2019-02-22T17:50:29.237Z,13.23
2019-02-22T17:53:00.025Z,12.20
2019-02-22T17:55:30.556Z,12.20
2019-02-22T17:58:01.219Z,11.90
2019-02-22T18:00:32.943Z,12.33
2019-02-22T18:03:03.747Z,11.80
2019-02-22T18:05:35.497Z,11.43
2019-02-22T18:08:09.877Z,11.95
2019-02-22T18:10:40.564Z,12.20
2019-02-22T18:13:15.826Z,11.92
2019-02-22T18:15:52.439Z,11.90
2019-02-22T18:18:21.869Z,11.73
2019-02-22T18:20:52.482Z,12.20
2019-02-22T18:23:28.942Z,12.27
2019-02-22T18:25:57.790Z,12.07
2019-02-22T18:28:30.504Z,11.62
2019-02-22T18:31:02.564Z,11.87
2019-02-22T18:33:33.829Z,11.88
2019-02-22T18:36:04.411Z,11.00
2019-02-22T18:38:35.117Z,11.05
2019-02-22T18:41:05.768Z,10.87
2019-02-22T18:43:38.383Z,10.50
2019-02-22T18:46:09.035Z,11.25
2019-02-22T18:48:43.788Z,10.70
2019-02-22T18:51:14.227Z,10.90
2019-02-22T18:53:49.727Z,10.90
2019-02-22T18:56:20.219Z,11.90
2019-02-22T18:58:51.902Z,10.87
2019-02-22T19:01:27.126Z,10.90
2019-02-22T19:03:58.158Z,10.78
2019-02-22T19:06:28.726Z,10.60
2019-02-22T19:09:03.021Z,9.85
2019-02-22T19:11:35.013Z,10.67
2019-02-22T19:14:07.536Z,10.60
2019-02-22T19:16:39.125Z,10.37
2019-02-22T19:19:14.218Z,10.03
2019-02-22T19:21:44.713Z,11.65
2019-02-22T19:24:20.025Z,12.95
2019-02-22T19:26:52.017Z,12.87
2019-02-22T19:29:23.778Z,14.77
2019-02-22T19:31:54.256Z,12.90
2019-02-22T19:34:26.948Z,14.30
2019-02-22T19:37:08.976Z,16.60
2019-02-22T19:39:38.045Z,16.07
2019-02-22T19:42:11.108Z,17.20
2019-02-22T19:44:45.307Z,17.25
2019-02-22T19:47:15.649Z,18.17
2019-02-22T19:49:46.049Z,20.53
2019-02-22T19:52:18.285Z,19.60
2019-02-22T19:54:48.875Z,22.60
2019-02-22T19:57:21.449Z,21.63
2019-02-22T19:59:59.053Z,22.05
2019-02-22T20:02:29.467Z,22.33
2019-02-22T20:05:01.376Z,21.07
2019-02-22T20:07:32.312Z,21.60
2019-02-22T20:10:04.941Z,21.45
2019-02-22T20:12:35.324Z,22.80
2019-02-22T20:15:06.908Z,22.20
2019-02-22T20:17:40.257Z,22.53
2019-02-22T20:20:12.956Z,22.47
2019-02-22T20:22:43.682Z,22.83
2019-02-22T20:25:15.791Z,22.87
2019-02-22T20:27:46.293Z,22.13
2019-02-22T20:30:20.888Z,21.87
2019-02-22T20:32:52.801Z,23.03
2019-02-22T20:35:23.888Z,22.30
2019-02-22T20:37:56.878Z,22.40
2019-02-22T20:40:27.560Z,22.48
2019-02-22T20:42:58.619Z,23.57
2019-02-22T20:45:29.418Z,23.00
2019-02-22T20:48:05.111Z,24.10
2019-02-22T20:50:33.961Z,23.57
2019-02-22T20:53:07.709Z,23.97
2019-02-22T20:55:39.902Z,23.30
2019-02-22T20:58:10.335Z,21.73
2019-02-22T21:00:45.349Z,23.12
2019-02-22T21:03:28.856Z,22.57
2019-02-22T21:05:57.841Z,23.67
2019-02-22T21:08:36.596Z,22.37
2019-02-22T21:11:19.095Z,23.23
2019-02-22T21:13:51.619Z,22.60
2019-02-22T21:16:25.098Z,22.82
2019-02-22T21:18:57.451Z,22.43
2019-02-22T21:21:29.922Z,23.20
2019-02-22T21:24:00.443Z,22.50
2019-02-22T21:26:33.462Z,22.17
2019-02-22T21:29:10.150Z,23.40
2019-02-22T21:31:45.130Z,24.13
2019-02-22T21:34:22.323Z,22.63
2019-02-22T21:36:53.157Z,23.50
2019-02-22T21:39:24.757Z,22.32
2019-02-22T21:41:57.472Z,22.80
2019-02-22T21:44:29.048Z,23.50
2019-02-22T21:47:01.174Z,22.93
2019-02-22T21:49:33.833Z,21.80
2019-02-22T21:52:06.055Z,22.00
2019-02-22T21:54:36.795Z,22.85
2019-02-22T21:57:09.630Z,22.73
2019-02-22T21:59:46.549Z,22.47
2019-02-22T22:02:16.993Z,20.53
2019-02-22T22:04:49.882Z,21.40
2019-02-22T22:07:23.698Z,21.07
2019-02-22T22:09:55.534Z,21.77
2019-02-22T22:12:25.895Z,20.70
2019-02-22T22:14:59.897Z,21.17
2019-02-22T22:17:30.325Z,19.90
2019-02-22T22:20:01.652Z,20.70
2019-02-22T22:22:38.209Z,20.03
2019-02-22T22:25:09.708Z,20.32
2019-02-22T22:27:40.160Z,20.07
2019-02-22T22:30:13.810Z,20.55
2019-02-22T22:32:44.750Z,20.73
2019-02-22T22:35:17.968Z,21.08
2019-02-22T22:37:52.789Z,19.60
2019-02-22T22:40:25.221Z,20.90
2019-02-22T22:42:55.714Z,19.97
2019-02-22T22:45:26.333Z,21.47
2019-02-22T22:47:56.984Z,21.50
2019-02-22T22:50:27.549Z,19.57
2019-02-22T22:53:00.767Z,22.20
2019-02-22T22:55:31.673Z,20.88
2019-02-22T22:58:02.150Z,19.40
2019-02-22T23:01:09.647Z,20.40
2019-02-22T23:03:54.217Z,20.05
2019-02-22T23:06:22.695Z,20.23
2019-02-22T23:08:56.123Z,20.10
2019-02-22T23:11:39.316Z,20.50
2019-02-22T23:14:14.395Z,19.97
2019-02-22T23:16:45.020Z,19.92
2019-02-22T23:19:15.328Z,20.60
2019-02-22T23:21:53.068Z,19.27
2019-02-22T23:24:23.872Z,19.17
2019-02-22T23:26:56.400Z,19.60
2019-02-22T23:29:27.738Z,19.37
2019-02-22T23:31:58.413Z,19.37
2019-02-22T23:34:33.850Z,18.83
2019-02-22T23:37:04.562Z,18.87
2019-02-22T23:39:34.904Z,19.47
2019-02-22T23:42:07.107Z,19.90
2019-02-22T23:44:38.904Z,19.57
2019-02-22T23:47:12.217Z,19.73
2019-02-22T23:49:44.755Z,19.67
2019-02-22T23:52:17.826Z,19.77
2019-02-22T23:54:48.186Z,19.63
2019-02-22T23:57:21.510Z,20.70
2019-02-22T23:59:53.756Z,18.67
